createdAt,value
2022-10-24T00:01:40.288Z,58.23
2022-10-24T00:04:08.024Z,58.67
2022-10-24T00:06:35.959Z,58.37
2022-10-24T00:09:03.712Z,58.02
2022-10-24T00:11:32.801Z,58.39
2022-10-24T00:14:00.739Z,58.37
2022-10-24T00:16:28.848Z,58.69
2022-10-24T00:18:56.619Z,58.46
2022-10-24T00:21:24.317Z,58.20
2022-10-24T00:23:52.205Z,58.65
2022-10-24T00:26:20.248Z,58.42
2022-10-24T00:28:49.319Z,59.31
2022-10-24T00:31:19.378Z,59.53
2022-10-24T00:33:47.114Z,59.32
2022-10-24T00:36:16.436Z,60.00
2022-10-24T00:38:44.172Z,59.88
2022-10-24T00:41:16.060Z,59.69
2022-10-24T00:43:43.970Z,59.76
2022-10-24T00:46:13.620Z,59.76
2022-10-24T00:48:43.963Z,59.34
2022-10-24T00:51:21.531Z,59.34
2022-10-24T00:53:51.763Z,59.75
2022-10-24T00:56:22.904Z,59.59
2022-10-24T00:58:51.727Z,60.02
2022-10-24T01:01:21.071Z,61.22
2022-10-24T01:03:48.868Z,61.42
2022-10-24T01:06:34.723Z,62.68
2022-10-24T01:09:16.423Z,62.86
2022-10-24T01:11:54.912Z,62.75
2022-10-24T01:14:34.111Z,62.92
2022-10-24T01:17:12.010Z,63.02
2022-10-24T01:20:16.797Z,64.01
2022-10-24T01:23:00.811Z,62.96
2022-10-24T01:25:42.110Z,62.75
2022-10-24T01:28:13.801Z,62.38
2022-10-24T01:30:46.969Z,62.48
2022-10-24T01:33:23.001Z,62.23
2022-10-24T01:35:55.817Z,62.28
2022-10-24T01:38:29.790Z,62.66
2022-10-24T01:41:01.789Z,62.32
2022-10-24T01:43:37.167Z,63.17
2022-10-24T01:46:10.980Z,62.73
2022-10-24T01:48:42.539Z,62.67
2022-10-24T01:51:14.545Z,62.75
2022-10-24T01:53:44.240Z,62.59
2022-10-24T01:56:14.325Z,62.83
2022-10-24T01:58:42.217Z,63.06
2022-10-24T02:01:17.513Z,62.92
2022-10-24T02:03:49.328Z,62.31
2022-10-24T02:06:20.384Z,62.49
2022-10-24T02:08:55.405Z,62.89
2022-10-24T02:11:23.320Z,62.98
2022-10-24T02:13:57.394Z,63.69
2022-10-24T02:16:27.247Z,63.54
2022-10-24T02:18:57.652Z,63.41
2022-10-24T02:21:32.921Z,63.79
2022-10-24T02:24:07.507Z,64.01
2022-10-24T02:26:39.672Z,63.71
2022-10-24T02:29:12.888Z,63.61
2022-10-24T02:31:48.466Z,64.34
2022-10-24T02:34:19.304Z,64.00
2022-10-24T02:36:50.353Z,64.80
2022-10-24T02:39:19.871Z,65.08
2022-10-24T02:41:50.234Z,65.44
2022-10-24T02:44:20.415Z,65.92
2022-10-24T02:46:53.748Z,65.85
2022-10-24T02:49:22.002Z,65.88
2022-10-24T02:51:51.039Z,66.16
2022-10-24T02:54:19.420Z,66.65
2022-10-24T02:56:51.713Z,66.64
2022-10-24T02:59:19.537Z,66.17
2022-10-24T03:01:47.398Z,66.24
2022-10-24T03:04:16.509Z,66.19
2022-10-24T03:06:44.468Z,66.84
2022-10-24T03:09:12.235Z,66.67
2022-10-24T03:11:40.132Z,66.18
2022-10-24T03:14:08.106Z,66.30
2022-10-24T03:16:35.826Z,66.94
2022-10-24T03:19:03.558Z,66.51
2022-10-24T03:21:32.941Z,66.91
2022-10-24T03:24:00.845Z,67.09
2022-10-24T03:26:28.758Z,67.31
2022-10-24T03:28:56.432Z,67.02
2022-10-24T03:31:26.562Z,67.18
2022-10-24T03:33:54.267Z,67.63
2022-10-24T03:36:22.239Z,67.39
2022-10-24T03:38:51.479Z,67.62
2022-10-24T03:41:19.593Z,67.35
2022-10-24T03:45:32.508Z,67.41
2022-10-24T03:48:00.607Z,68.02
2022-10-24T03:50:28.354Z,68.25
2022-10-24T03:52:56.044Z,69.16
2022-10-24T03:55:23.987Z,68.86
2022-10-24T03:57:51.835Z,69.08
2022-10-24T04:00:20.019Z,69.71
2022-10-24T04:02:50.857Z,70.23
2022-10-24T04:05:18.906Z,70.73
2022-10-24T04:07:47.064Z,70.27
2022-10-24T04:10:17.694Z,71.68
2022-10-24T04:12:45.420Z,71.04
2022-10-24T04:15:13.317Z,70.91
2022-10-24T04:17:41.129Z,70.63
2022-10-24T04:20:11.279Z,70.75
2022-10-24T04:22:39.461Z,70.46
2022-10-24T04:25:07.714Z,69.93
2022-10-24T04:27:40.578Z,69.40
2022-10-24T04:30:14.057Z,69.47
2022-10-24T04:32:45.032Z,69.76
2022-10-24T04:35:14.885Z,70.10
2022-10-24T04:37:42.760Z,70.19
2022-10-24T04:40:11.395Z,71.24
2022-10-24T04:42:39.143Z,71.63
2022-10-24T04:45:08.519Z,71.41
2022-10-24T04:47:36.455Z,71.50
2022-10-24T04:50:05.561Z,72.05
2022-10-24T04:52:34.654Z,72.55
2022-10-24T04:55:05.147Z,72.67
2022-10-24T04:57:32.942Z,72.24
2022-10-24T05:00:00.644Z,72.83
2022-10-24T05:02:28.455Z,72.08
2022-10-24T05:05:02.529Z,72.06
2022-10-24T05:07:30.848Z,72.04
2022-10-24T05:10:00.030Z,72.99
2022-10-24T05:12:27.856Z,72.72
2022-10-24T05:14:55.639Z,73.64
2022-10-24T05:17:23.406Z,73.10
2022-10-24T05:19:51.153Z,72.73
2022-10-24T05:22:19.908Z,72.45
2022-10-24T05:24:47.810Z,72.20
2022-10-24T05:27:20.655Z,71.10
2022-10-24T05:29:48.388Z,70.53
2022-10-24T05:32:16.131Z,69.58
2022-10-24T05:34:43.909Z,69.17
2022-10-24T05:37:11.700Z,69.20
2022-10-24T05:39:39.591Z,69.33
2022-10-24T05:42:07.752Z,69.41
2022-10-24T05:44:36.905Z,70.44
2022-10-24T05:47:04.741Z,71.60
2022-10-24T05:49:32.820Z,73.36
2022-10-24T05:52:00.648Z,74.09
2022-10-24T05:54:37.527Z,77.17
2022-10-24T05:57:16.136Z,78.69
2022-10-24T05:59:45.346Z,78.24
2022-10-24T06:02:19.022Z,79.66
2022-10-24T06:04:46.955Z,78.48
2022-10-24T06:07:15.485Z,79.93
2022-10-24T06:09:43.956Z,80.84
2022-10-24T06:12:13.044Z,81.70
2022-10-24T06:14:40.991Z,81.53
2022-10-24T06:17:11.798Z,81.92
2022-10-24T06:19:40.209Z,82.43
2022-10-24T06:22:09.236Z,80.95
2022-10-24T06:24:38.490Z,81.01
2022-10-24T06:27:06.978Z,80.96
2022-10-24T06:29:35.510Z,81.00
2022-10-24T06:32:03.734Z,81.33
2022-10-24T06:34:35.527Z,80.03
2022-10-24T06:37:03.408Z,80.38
2022-10-24T06:39:31.283Z,80.33
2022-10-24T06:41:58.962Z,80.99
2022-10-24T06:44:27.487Z,81.24
2022-10-24T06:46:55.210Z,81.31
2022-10-24T06:49:22.973Z,80.46
2022-10-24T06:51:52.366Z,82.81
2022-10-24T06:54:20.119Z,81.61
2022-10-24T06:56:47.890Z,81.22
2022-10-24T06:59:18.152Z,81.03
2022-10-24T07:01:46.848Z,81.60
2022-10-24T07:04:14.740Z,81.07
2022-10-24T07:06:42.613Z,84.24
2022-10-24T07:09:15.418Z,87.44
2022-10-24T07:11:43.960Z,87.94
2022-10-24T07:14:12.355Z,86.53
2022-10-24T07:16:42.317Z,87.28
2022-10-24T07:19:11.495Z,87.39
2022-10-24T07:21:39.743Z,88.26
2022-10-24T07:24:08.685Z,87.54
2022-10-24T07:26:37.821Z,87.85
2022-10-24T07:29:05.921Z,88.27
2022-10-24T07:31:35.761Z,89.06
2022-10-24T07:34:06.899Z,88.57
2022-10-24T07:36:35.632Z,88.68
2022-10-24T07:39:04.880Z,88.54
2022-10-24T07:41:33.557Z,88.78
2022-10-24T07:44:03.118Z,89.76
2022-10-24T07:46:31.478Z,89.20
2022-10-24T07:48:59.403Z,90.08
2022-10-24T07:51:28.444Z,89.43
2022-10-24T07:53:57.867Z,89.27
2022-10-24T07:56:25.646Z,89.31
2022-10-24T07:58:53.451Z,88.83
2022-10-24T08:01:24.988Z,90.09
2022-10-24T08:03:52.951Z,89.70
2022-10-24T08:06:23.264Z,90.85
2022-10-24T08:08:51.089Z,91.78
2022-10-24T08:11:22.175Z,92.27
2022-10-24T08:13:51.043Z,91.68
2022-10-24T08:16:21.753Z,90.08
2022-10-24T08:18:52.050Z,89.00
2022-10-24T08:21:22.032Z,87.65
2022-10-24T08:23:51.947Z,88.03
2022-10-24T08:26:24.184Z,87.96
2022-10-24T08:28:52.272Z,88.98
2022-10-24T08:31:22.106Z,88.72
2022-10-24T08:33:53.982Z,86.42
2022-10-24T08:36:24.581Z,85.95
2022-10-24T08:38:52.321Z,85.17
2022-10-24T08:41:27.953Z,84.80
2022-10-24T08:43:57.491Z,85.17
2022-10-24T08:46:38.175Z,85.59
2022-10-24T08:49:16.958Z,85.38
2022-10-24T08:51:48.515Z,86.25
2022-10-24T08:54:23.826Z,86.08
2022-10-24T08:56:55.595Z,86.87
2022-10-24T08:59:23.719Z,86.32
2022-10-24T09:01:59.395Z,86.25
2022-10-24T09:04:37.613Z,84.58
2022-10-24T09:07:10.312Z,84.60
2022-10-24T09:09:44.318Z,85.34
2022-10-24T09:12:14.950Z,85.18
2022-10-24T09:14:47.065Z,85.27
2022-10-24T09:17:21.155Z,85.50
2022-10-24T09:19:54.566Z,84.58
2022-10-24T09:22:23.832Z,85.32
2022-10-24T09:24:54.587Z,85.71
2022-10-24T09:27:26.563Z,84.52
2022-10-24T09:29:54.668Z,84.69
2022-10-24T09:32:26.817Z,85.44
2022-10-24T09:34:56.415Z,84.73
2022-10-24T09:37:42.750Z,84.75
2022-10-24T09:40:19.070Z,85.12
2022-10-24T09:42:52.522Z,84.05
2022-10-24T09:45:30.511Z,83.39
2022-10-24T09:48:00.476Z,84.47
2022-10-24T09:50:31.826Z,83.95
2022-10-24T09:53:00.897Z,83.60
2022-10-24T09:55:31.103Z,83.28
2022-10-24T09:58:05.295Z,83.27
2022-10-24T10:00:35.137Z,83.86
2022-10-24T10:03:05.914Z,83.23
2022-10-24T10:05:45.922Z,83.16
2022-10-24T10:08:19.985Z,83.47
2022-10-24T10:11:00.588Z,84.39
2022-10-24T10:13:29.530Z,85.49
2022-10-24T10:15:59.027Z,86.85
2022-10-24T10:18:30.980Z,87.75
2022-10-24T10:21:04.155Z,86.38
2022-10-24T10:23:34.490Z,85.88
2022-10-24T10:26:15.192Z,86.33
2022-10-24T10:28:47.668Z,86.16
2022-10-24T10:31:22.258Z,86.69
2022-10-24T10:34:03.215Z,85.81
2022-10-24T10:36:36.732Z,84.15
2022-10-24T10:39:23.650Z,82.99
2022-10-24T10:41:59.779Z,82.60
2022-10-24T10:44:44.378Z,80.71
2022-10-24T10:47:22.722Z,79.63
2022-10-24T10:49:57.118Z,79.52
2022-10-24T10:52:32.207Z,79.17
2022-10-24T10:55:29.382Z,78.96
2022-10-24T10:58:10.944Z,79.31
2022-10-24T11:00:48.158Z,78.36
2022-10-24T11:03:29.404Z,78.16
2022-10-24T11:06:10.400Z,77.98
2022-10-24T11:08:53.788Z,77.27
2022-10-24T11:11:25.720Z,77.24
2022-10-24T11:14:00.268Z,77.28
2022-10-24T11:16:30.435Z,76.93
2022-10-24T11:19:02.847Z,76.97
2022-10-24T11:21:35.967Z,76.59
2022-10-24T11:24:13.742Z,76.25
2022-10-24T11:26:44.713Z,75.92
2022-10-24T11:29:20.815Z,76.08
2022-10-24T11:31:53.958Z,75.95
2022-10-24T11:34:32.317Z,75.32
2022-10-24T11:37:07.313Z,75.04
2022-10-24T11:39:45.347Z,74.92
2022-10-24T11:42:20.428Z,75.14
2022-10-24T11:44:55.056Z,75.74
2022-10-24T11:47:48.771Z,74.91
2022-10-24T11:50:25.921Z,74.18
2022-10-24T11:52:58.001Z,74.76
2022-10-24T11:55:31.520Z,74.05
2022-10-24T11:58:01.264Z,74.12
2022-10-24T12:00:32.325Z,74.57
2022-10-24T12:03:30.413Z,73.81
2022-10-24T12:06:18.030Z,74.34
2022-10-24T12:09:05.384Z,74.08
2022-10-24T12:11:57.528Z,73.07
2022-10-24T12:15:02.854Z,73.16
2022-10-24T12:18:01.429Z,73.05
2022-10-24T12:20:31.189Z,74.04
2022-10-24T12:23:01.966Z,74.12
2022-10-24T12:25:33.233Z,74.08
2022-10-24T12:28:04.972Z,73.70
2022-10-24T12:30:35.687Z,72.76
2022-10-24T12:33:24.935Z,72.98
2022-10-24T12:35:56.379Z,72.94
2022-10-24T12:39:07.588Z,72.97
2022-10-24T12:41:43.780Z,72.47
2022-10-24T12:44:38.920Z,72.01
2022-10-24T12:47:41.447Z,71.91
2022-10-24T12:50:46.809Z,72.15
2022-10-24T12:53:32.399Z,71.90
2022-10-24T12:56:10.088Z,72.70
2022-10-24T12:58:38.927Z,72.65
2022-10-24T13:01:12.889Z,71.92
2022-10-24T13:03:58.020Z,71.71
2022-10-24T13:06:29.871Z,71.30
2022-10-24T13:09:21.723Z,71.57
2022-10-24T13:12:02.193Z,71.91
2022-10-24T13:14:56.171Z,70.98
2022-10-24T13:17:37.321Z,71.16
2022-10-24T13:20:18.084Z,71.49
2022-10-24T13:22:47.957Z,71.83
2022-10-24T13:25:22.038Z,71.52
2022-10-24T13:28:23.242Z,71.48
2022-10-24T13:30:53.729Z,71.08
2022-10-24T13:33:50.251Z,71.27
2022-10-24T13:36:27.784Z,70.90
2022-10-24T13:38:59.432Z,71.15
2022-10-24T13:41:31.025Z,71.47
2022-10-24T13:44:03.933Z,71.80
2022-10-24T13:46:41.799Z,71.07
2022-10-24T13:49:17.191Z,71.19
2022-10-24T13:51:47.622Z,70.81
2022-10-24T13:54:21.727Z,70.62
2022-10-24T13:56:50.229Z,70.21
2022-10-24T13:59:29.217Z,70.84
2022-10-24T14:01:59.529Z,70.59
2022-10-24T14:04:29.447Z,70.97
2022-10-24T14:07:02.974Z,70.94
2022-10-24T14:09:32.407Z,71.40
2022-10-24T14:12:00.276Z,71.05
2022-10-24T14:14:33.062Z,71.23
2022-10-24T14:17:09.633Z,70.53
2022-10-24T14:19:45.877Z,70.78
2022-10-24T14:22:21.317Z,70.53
2022-10-24T14:24:50.035Z,71.05
2022-10-24T14:27:20.075Z,71.06
2022-10-24T14:29:58.470Z,71.43
2022-10-24T14:32:27.811Z,71.31
2022-10-24T14:34:58.259Z,71.31
2022-10-24T14:37:32.645Z,71.55
2022-10-24T14:40:01.573Z,70.98
2022-10-24T14:42:30.213Z,70.53
2022-10-24T14:44:58.675Z,70.93
2022-10-24T14:47:29.651Z,69.92
2022-10-24T14:50:01.792Z,69.79
2022-10-24T14:52:36.481Z,69.13
2022-10-24T14:55:07.544Z,69.13
2022-10-24T14:57:37.712Z,68.60
2022-10-24T15:00:08.378Z,68.87
2022-10-24T15:02:42.139Z,69.06
2022-10-24T15:05:27.031Z,68.60
2022-10-24T15:08:20.362Z,68.68
2022-10-24T15:10:44.907Z,68.08
2022-10-24T15:13:15.033Z,68.31
2022-10-24T15:15:52.640Z,67.97
2022-10-24T15:18:23.353Z,67.99
2022-10-24T15:20:54.768Z,68.42
2022-10-24T15:23:27.911Z,68.52
2022-10-24T15:26:02.199Z,68.11
2022-10-24T15:28:38.372Z,69.05
2022-10-24T15:31:11.202Z,68.49
2022-10-24T15:36:18.301Z,68.31
2022-10-24T15:38:46.060Z,68.66
2022-10-24T15:41:14.044Z,68.87
2022-10-24T15:43:42.151Z,68.78
2022-10-24T15:46:09.971Z,69.22
2022-10-24T15:48:38.720Z,69.32
2022-10-24T15:51:07.046Z,69.53
2022-10-24T15:53:36.106Z,69.83
2022-10-24T15:56:03.797Z,69.52
2022-10-24T15:58:31.651Z,69.70
2022-10-24T16:01:00.048Z,68.84
2022-10-24T16:03:28.013Z,69.89
2022-10-24T16:05:58.114Z,69.71
2022-10-24T16:08:26.340Z,69.57
2022-10-24T16:10:55.718Z,69.60
2022-10-24T16:13:24.025Z,70.04
2022-10-24T16:15:51.781Z,69.56
2022-10-24T16:18:19.476Z,69.51
2022-10-24T16:20:47.298Z,69.99
2022-10-24T16:23:17.441Z,70.18
2022-10-24T16:25:45.545Z,70.15
2022-10-24T16:28:15.607Z,70.76
2022-10-24T16:30:44.600Z,71.85
2022-10-24T16:33:12.985Z,72.98
2022-10-24T16:35:42.210Z,72.68
2022-10-24T16:38:10.450Z,72.90
2022-10-24T16:40:42.422Z,73.05
2022-10-24T16:43:11.832Z,73.04
2022-10-24T16:45:41.105Z,72.27
2022-10-24T16:48:08.872Z,72.96
2022-10-24T16:50:36.652Z,73.14
2022-10-24T16:53:07.254Z,72.94
2022-10-24T16:55:35.367Z,74.81
2022-10-24T16:58:03.436Z,75.38
2022-10-24T17:00:31.307Z,75.16
2022-10-24T17:03:03.134Z,75.29
2022-10-24T17:05:33.160Z,75.08
2022-10-24T17:08:00.895Z,75.75
2022-10-24T17:10:28.600Z,75.22
2022-10-24T17:12:57.052Z,74.47
2022-10-24T17:15:24.836Z,76.16
2022-10-24T17:17:52.709Z,75.94
2022-10-24T17:20:22.023Z,74.87
2022-10-24T17:22:50.222Z,74.37
2022-10-24T17:25:21.588Z,75.92
2022-10-24T17:27:50.182Z,75.16
2022-10-24T17:30:20.606Z,75.00
2022-10-24T17:32:49.184Z,74.58
2022-10-24T17:35:20.443Z,74.13
2022-10-24T17:38:03.095Z,74.50
2022-10-24T17:40:42.323Z,74.15
2022-10-24T17:43:18.820Z,74.21
2022-10-24T17:45:47.286Z,74.76
2022-10-24T17:48:17.754Z,75.11
2022-10-24T17:50:46.030Z,74.74
2022-10-24T17:53:17.057Z,74.57
2022-10-24T17:55:47.132Z,73.92
2022-10-24T17:58:16.783Z,73.88
2022-10-24T18:00:45.029Z,74.07
2022-10-24T18:03:12.980Z,74.70
2022-10-24T18:05:40.779Z,74.11
2022-10-24T18:08:10.441Z,75.08
2022-10-24T18:10:40.548Z,77.37
2022-10-24T18:13:08.783Z,78.17
2022-10-24T18:15:38.811Z,80.91
2022-10-24T18:18:06.809Z,82.76
2022-10-24T18:20:35.655Z,84.84
2022-10-24T18:23:03.515Z,83.25
2022-10-24T18:25:31.285Z,83.68
2022-10-24T18:28:00.429Z,84.55
2022-10-24T18:30:28.225Z,85.03
2022-10-24T18:32:56.020Z,85.28
2022-10-24T18:35:23.769Z,85.98
2022-10-24T18:40:21.425Z,86.27
2022-10-24T18:42:51.787Z,85.81
2022-10-24T18:45:23.368Z,84.71
2022-10-24T18:47:52.389Z,83.97
2022-10-24T18:50:23.584Z,84.02
2022-10-24T18:52:56.645Z,83.77
2022-10-24T18:55:26.490Z,85.38
2022-10-24T18:57:55.150Z,86.00
2022-10-24T19:00:26.612Z,86.33
2022-10-24T19:03:04.095Z,85.88
2022-10-24T19:05:54.797Z,86.38
2022-10-24T19:08:25.720Z,86.69
2022-10-24T19:10:56.168Z,90.27
2022-10-24T19:13:25.351Z,90.91
2022-10-24T19:15:58.003Z,89.86
2022-10-24T19:18:26.766Z,89.32
2022-10-24T19:20:54.638Z,89.29
2022-10-24T19:23:22.385Z,89.60
2022-10-24T19:25:50.816Z,89.98
2022-10-24T19:28:21.010Z,90.80
2022-10-24T19:30:49.694Z,90.67
2022-10-24T19:33:18.753Z,89.73
2022-10-24T19:35:47.714Z,88.68
2022-10-24T19:38:15.536Z,87.65
2022-10-24T19:40:47.686Z,87.83
2022-10-24T19:43:15.447Z,88.39
2022-10-24T19:45:50.167Z,87.88
2022-10-24T19:48:19.860Z,87.26
2022-10-24T19:50:47.750Z,87.27
2022-10-24T19:53:15.835Z,87.52
2022-10-24T19:55:44.091Z,87.13
2022-10-24T19:58:12.920Z,88.57
2022-10-24T20:00:41.400Z,90.31
2022-10-24T20:03:09.349Z,89.16
2022-10-24T20:05:38.556Z,89.42
2022-10-24T20:08:08.339Z,89.36
2022-10-24T20:10:36.129Z,89.58
2022-10-24T20:13:03.880Z,89.88
2022-10-24T20:15:31.647Z,90.00
2022-10-24T20:17:59.349Z,90.38
2022-10-24T20:20:27.164Z,90.19
2022-10-24T20:22:58.350Z,89.66
2022-10-24T20:25:26.124Z,90.36
2022-10-24T20:27:53.920Z,90.71
2022-10-24T20:30:23.713Z,90.56
2022-10-24T20:32:53.853Z,90.96
2022-10-24T20:35:22.170Z,91.87
2022-10-24T20:37:50.138Z,90.85
2022-10-24T20:40:20.033Z,90.34
2022-10-24T20:42:49.514Z,91.09
2022-10-24T20:45:22.066Z,90.81
2022-10-24T20:47:51.149Z,90.69
2022-10-24T20:50:18.961Z,90.43
2022-10-24T20:52:46.926Z,90.83
2022-10-24T20:55:25.279Z,90.43
2022-10-24T20:58:04.215Z,91.14
2022-10-24T21:00:31.982Z,90.41
2022-10-24T21:02:59.784Z,89.61
2022-10-24T21:05:29.024Z,88.93
2022-10-24T21:07:56.868Z,88.16
2022-10-24T21:10:24.592Z,88.10
2022-10-24T21:12:54.710Z,87.76
2022-10-24T21:15:24.032Z,87.57
2022-10-24T21:17:52.554Z,87.78
2022-10-24T21:20:20.291Z,87.50
2022-10-24T21:22:47.969Z,87.27
2022-10-24T21:25:15.745Z,87.34
2022-10-24T21:27:43.616Z,87.04
2022-10-24T21:30:14.798Z,87.04
2022-10-24T21:32:44.133Z,87.76
2022-10-24T21:35:11.942Z,87.98
2022-10-24T21:37:39.708Z,87.59
2022-10-24T21:40:08.426Z,88.33
2022-10-24T21:42:36.121Z,88.65
2022-10-24T21:45:04.309Z,88.35
2022-10-24T21:47:32.035Z,87.76
2022-10-24T21:50:01.081Z,87.76
2022-10-24T21:52:28.959Z,87.17
2022-10-24T21:54:56.936Z,86.67
2022-10-24T21:57:24.755Z,86.51
2022-10-24T21:59:52.515Z,86.85
2022-10-24T22:02:22.454Z,86.70
2022-10-24T22:04:50.307Z,87.39
2022-10-24T22:07:19.493Z,86.80
2022-10-24T22:09:47.198Z,87.93
2022-10-24T22:12:14.999Z,88.23
2022-10-24T22:14:42.748Z,89.71
2022-10-24T22:17:10.509Z,88.01
2022-10-24T22:19:38.174Z,88.74
2022-10-24T22:22:05.877Z,90.38
2022-10-24T22:24:34.975Z,90.27
2022-10-24T22:27:02.747Z,89.33
2022-10-24T22:29:30.645Z,88.19
2022-10-24T22:31:58.936Z,88.81
2022-10-24T22:34:28.378Z,88.67
2022-10-24T22:37:15.173Z,88.91
2022-10-24T22:39:44.941Z,88.18
2022-10-24T22:42:19.356Z,88.41
2022-10-24T22:44:48.938Z,88.16
2022-10-24T22:47:37.291Z,87.78
2022-10-24T22:50:14.670Z,87.93
2022-10-24T22:52:50.509Z,86.97
2022-10-24T22:55:29.417Z,89.04
2022-10-24T22:57:57.573Z,88.96
2022-10-24T23:00:26.199Z,88.66
2022-10-24T23:03:01.742Z,88.07
2022-10-24T23:05:39.908Z,87.84
2022-10-24T23:08:13.207Z,87.32
2022-10-24T23:10:45.011Z,88.24
2022-10-24T23:13:13.247Z,89.84
2022-10-24T23:15:41.368Z,90.24
2022-10-24T23:18:10.689Z,90.49
2022-10-24T23:20:44.512Z,90.15
2022-10-24T23:23:28.176Z,89.89
2022-10-24T23:26:04.914Z,88.72
2022-10-24T23:28:40.888Z,88.39
2022-10-24T23:31:09.396Z,88.30
2022-10-24T23:33:37.464Z,87.76
2022-10-24T23:36:05.859Z,87.68
2022-10-24T23:38:34.300Z,87.58
2022-10-24T23:41:04.081Z,88.02
2022-10-24T23:43:32.335Z,87.29
2022-10-24T23:46:03.097Z,87.52
2022-10-24T23:48:44.619Z,87.81
2022-10-24T23:51:18.515Z,87.72
2022-10-24T23:53:50.282Z,88.80
2022-10-24T23:56:21.672Z,88.67
2022-10-24T23:58:49.851Z,89.94
